createdAt,value
2019-05-25T00:04:02.396Z,12.97
2019-05-25T00:09:06.618Z,10.30
2019-05-25T00:14:09.003Z,8.13
2019-05-25T00:19:12.387Z,12.13
2019-05-25T00:24:14.826Z,13.37
2019-05-25T00:29:17.231Z,15.77
2019-05-25T00:34:19.744Z,10.77
2019-05-25T00:39:23.226Z,23.37
2019-05-25T00:44:25.678Z,10.67
2019-05-25T00:49:28.076Z,11.00
2019-05-25T00:54:30.681Z,10.23
2019-05-25T00:59:33.135Z,14.67
2019-05-25T01:04:35.949Z,14.03
2019-05-25T01:09:38.367Z,9.63
2019-05-25T01:14:40.747Z,14.27
2019-05-25T01:19:43.107Z,10.73
2019-05-25T01:24:45.412Z,9.67
2019-05-25T01:29:47.775Z,16.23
2019-05-25T01:34:50.180Z,13.00
2019-05-25T01:39:52.548Z,15.83
2019-05-25T01:44:54.957Z,13.13
2019-05-25T01:49:57.320Z,13.00
2019-05-25T01:55:00.519Z,18.27
2019-05-25T02:00:05.163Z,11.30
2019-05-25T02:05:07.824Z,16.80
2019-05-25T02:10:10.817Z,14.00
2019-05-25T02:15:13.430Z,10.60
2019-05-25T02:20:15.895Z,12.83
2019-05-25T02:25:19.670Z,13.23
2019-05-25T02:30:26.292Z,12.30
2019-05-25T02:35:29.391Z,17.27
2019-05-25T02:40:31.859Z,13.20
2019-05-25T02:45:34.187Z,12.37
2019-05-25T02:50:36.664Z,13.13
2019-05-25T02:55:39.263Z,14.80
2019-05-25T03:00:41.715Z,12.93
2019-05-25T03:05:45.421Z,12.90
2019-05-25T03:10:48.907Z,13.00
2019-05-25T03:15:51.291Z,12.10
2019-05-25T03:20:53.719Z,12.60
2019-05-25T03:25:56.179Z,15.13
2019-05-25T03:30:58.648Z,18.07
2019-05-25T03:36:01.031Z,12.73
2019-05-25T03:41:03.347Z,17.90
2019-05-25T03:46:05.707Z,13.27
2019-05-25T03:51:08.923Z,10.13
2019-05-25T03:56:11.399Z,15.83
2019-05-25T04:01:13.822Z,15.70
2019-05-25T04:06:16.401Z,17.93
2019-05-25T04:11:18.808Z,12.10
2019-05-25T04:16:21.277Z,12.47
2019-05-25T04:21:23.675Z,12.70
2019-05-25T04:26:27.606Z,15.87
2019-05-25T04:31:30.243Z,12.97
2019-05-25T04:36:32.635Z,14.30
2019-05-25T04:41:36.171Z,17.73
2019-05-25T04:46:38.584Z,15.90
2019-05-25T04:51:40.947Z,14.73
2019-05-25T04:56:43.375Z,16.50
2019-05-25T05:01:46.123Z,13.60
2019-05-25T05:06:49.257Z,14.60
2019-05-25T05:11:51.696Z,10.80
2019-05-25T05:16:53.971Z,14.77
2019-05-25T05:21:56.407Z,12.57
2019-05-25T05:26:58.688Z,12.60
2019-05-25T05:32:01.083Z,43.37
2019-05-25T05:37:03.680Z,18.27
2019-05-25T05:42:09.722Z,16.07
2019-05-25T05:47:13.838Z,11.97
2019-05-25T05:52:19.139Z,12.63
2019-05-25T05:57:21.568Z,12.63
2019-05-25T06:02:24.039Z,11.07
2019-05-25T06:07:27.538Z,12.03
2019-05-25T06:12:30.055Z,12.53
2019-05-25T06:17:32.544Z,12.37
2019-05-25T06:22:35.105Z,11.27
2019-05-25T06:27:39.855Z,12.00
2019-05-25T06:32:42.256Z,9.87
2019-05-25T06:37:44.751Z,10.57
2019-05-25T06:42:47.159Z,10.90
2019-05-25T06:47:52.454Z,9.73
2019-05-25T06:52:57.895Z,11.50
2019-05-25T06:57:59.635Z,8.87
2019-05-25T07:03:01.982Z,9.93
2019-05-25T07:08:04.747Z,9.77
2019-05-25T07:13:07.467Z,9.20
2019-05-25T07:18:10.454Z,8.30
2019-05-25T07:23:12.883Z,11.00
2019-05-25T07:28:15.247Z,10.77
2019-05-25T07:33:17.555Z,9.17
2019-05-25T07:38:19.968Z,8.13
2019-05-25T07:43:22.401Z,11.40
2019-05-25T07:48:24.851Z,12.20
2019-05-25T07:53:27.495Z,12.67
2019-05-25T07:58:29.847Z,11.27
2019-05-25T08:03:32.326Z,8.57
2019-05-25T08:08:34.980Z,7.40
2019-05-25T08:13:37.737Z,8.93
2019-05-25T08:18:40.230Z,8.80
2019-05-25T08:23:49.178Z,7.37
2019-05-25T08:28:52.327Z,7.90
2019-05-25T08:33:54.742Z,7.73
2019-05-25T08:38:57.247Z,6.23
2019-05-25T08:44:10.124Z,6.40
2019-05-25T08:49:12.677Z,10.13
2019-05-25T08:54:15.540Z,5.97
2019-05-25T08:59:17.971Z,6.33
2019-05-25T09:04:20.333Z,7.03
2019-05-25T09:09:24.006Z,5.35
2019-05-25T09:14:26.833Z,6.07
2019-05-25T09:19:29.252Z,7.00
2019-05-25T09:24:31.662Z,6.12
2019-05-25T09:29:34.334Z,6.00
2019-05-25T09:34:37.440Z,6.42
2019-05-25T09:39:49.730Z,9.15
2019-05-25T09:44:52.376Z,7.65
2019-05-25T09:49:54.779Z,4.03
2019-05-25T09:54:57.097Z,7.10
2019-05-25T09:59:59.475Z,3.67
2019-05-25T10:05:03.160Z,6.05
2019-05-25T10:10:05.815Z,4.17
2019-05-25T10:15:10.914Z,6.97
2019-05-25T10:20:13.619Z,3.47
2019-05-25T10:25:17.206Z,3.90
2019-05-25T10:30:19.705Z,4.83
2019-05-25T10:35:22.133Z,5.78
2019-05-25T10:40:24.498Z,3.83
2019-05-25T10:45:26.927Z,5.42
2019-05-25T10:50:29.231Z,6.35
2019-05-25T10:55:31.654Z,6.55
2019-05-25T11:00:34.051Z,4.80
2019-05-25T11:05:36.589Z,3.72
2019-05-25T11:10:39.019Z,4.30
2019-05-25T11:15:41.463Z,4.20
2019-05-25T11:20:44.003Z,4.05
2019-05-25T11:25:46.536Z,6.05
2019-05-25T11:30:48.976Z,4.05
2019-05-25T11:35:51.501Z,5.80
2019-05-25T11:40:53.916Z,6.08
2019-05-25T11:45:56.262Z,3.17
2019-05-25T11:50:58.639Z,4.78
2019-05-25T11:56:01.015Z,3.35
2019-05-25T12:01:04.873Z,3.10
2019-05-25T12:06:07.900Z,3.35
2019-05-25T12:11:10.326Z,3.25
2019-05-25T12:16:12.847Z,5.70
2019-05-25T12:21:15.446Z,4.80
2019-05-25T12:26:17.771Z,4.12
2019-05-25T12:31:20.186Z,3.60
2019-05-25T12:36:22.594Z,5.10
2019-05-25T12:41:25.006Z,9.18
2019-05-25T12:46:27.687Z,6.60
2019-05-25T12:51:30.240Z,5.20
2019-05-25T12:56:33.899Z,8.30
2019-05-25T13:01:36.437Z,5.75
2019-05-25T13:06:38.811Z,4.77
2019-05-25T13:11:41.276Z,4.13
2019-05-25T13:16:43.672Z,11.12
2019-05-25T13:21:46.171Z,7.07
2019-05-25T13:26:49.691Z,11.03
2019-05-25T13:32:11.821Z,4.80
2019-05-25T13:37:10.463Z,3.60
2019-05-25T13:42:13.408Z,3.12
2019-05-25T13:47:15.811Z,3.10
2019-05-25T13:52:18.495Z,3.60
2019-05-25T13:57:20.974Z,4.15
2019-05-25T14:02:23.673Z,3.02
2019-05-25T14:07:27.123Z,4.78
2019-05-25T14:12:29.611Z,3.20
2019-05-25T14:17:32.072Z,3.25
2019-05-25T14:22:34.531Z,2.92
2019-05-25T14:27:40.667Z,2.95
2019-05-25T14:32:43.501Z,2.95
2019-05-25T14:37:46.369Z,3.72
2019-05-25T14:42:48.767Z,2.95
2019-05-25T14:48:00.928Z,3.80
2019-05-25T14:53:03.808Z,4.03
2019-05-25T14:58:07.104Z,4.45
2019-05-25T15:03:09.576Z,2.70
2019-05-25T15:08:11.977Z,2.60
2019-05-25T15:13:14.407Z,6.70
2019-05-25T15:18:16.831Z,3.10
2019-05-25T15:23:19.879Z,3.58
2019-05-25T15:28:22.252Z,3.25
2019-05-25T15:33:24.607Z,2.62
2019-05-25T15:38:26.953Z,3.27
2019-05-25T15:43:29.552Z,2.60
2019-05-25T15:48:31.955Z,2.10
2019-05-25T15:53:34.467Z,2.10
2019-05-25T15:58:36.874Z,2.10
2019-05-25T16:03:39.280Z,2.17
2019-05-25T16:08:41.779Z,2.10
2019-05-25T16:13:44.267Z,2.10
2019-05-25T16:18:48.850Z,5.35
2019-05-25T16:23:51.456Z,1.82
2019-05-25T16:28:53.971Z,1.77
2019-05-25T16:33:56.535Z,1.62
2019-05-25T16:38:59.340Z,1.65
2019-05-25T16:44:01.731Z,2.50
2019-05-25T16:49:04.140Z,1.40
2019-05-25T16:54:06.766Z,2.35
2019-05-25T16:59:10.283Z,3.00
2019-05-25T17:04:13.037Z,6.92
2019-05-25T17:09:15.443Z,3.05
2019-05-25T17:14:18.215Z,3.75
2019-05-25T17:19:20.707Z,3.72
2019-05-25T17:24:23.395Z,4.20
2019-05-25T17:29:27.747Z,2.55
2019-05-25T17:34:30.151Z,3.35
2019-05-25T17:39:32.594Z,3.22
2019-05-25T17:44:34.965Z,2.77
2019-05-25T17:49:37.537Z,3.55
2019-05-25T17:54:40.079Z,2.95
2019-05-25T17:59:42.573Z,4.47
2019-05-25T18:04:44.945Z,3.97
2019-05-25T18:09:47.332Z,4.03
2019-05-25T18:14:49.794Z,4.07
2019-05-25T18:19:52.268Z,3.93
2019-05-25T18:24:54.804Z,4.63
2019-05-25T18:29:57.173Z,6.63
2019-05-25T18:34:59.590Z,4.30
2019-05-25T18:40:03.120Z,5.50
2019-05-25T18:45:05.717Z,3.70
2019-05-25T18:50:09.431Z,4.23
2019-05-25T18:55:13.463Z,4.30
2019-05-25T19:00:16.078Z,6.33
2019-05-25T19:05:19.367Z,5.03
2019-05-25T19:10:22.817Z,7.30
2019-05-25T19:15:25.907Z,8.27
2019-05-25T19:20:28.536Z,7.10
2019-05-25T19:25:30.953Z,5.73
2019-05-25T19:30:33.449Z,6.07
2019-05-25T19:35:36.647Z,7.73
2019-05-25T19:40:40.096Z,11.23
2019-05-25T19:45:46.897Z,13.07
2019-05-25T19:50:47.301Z,14.03
2019-05-25T19:55:52.114Z,9.10
2019-05-25T20:00:55.022Z,7.47
2019-05-25T20:05:58.617Z,11.50
2019-05-25T20:11:02.392Z,8.87
2019-05-25T20:16:04.880Z,14.67
2019-05-25T20:21:07.329Z,9.03
2019-05-25T20:26:09.824Z,12.00
2019-05-25T20:31:12.310Z,10.50
2019-05-25T20:36:14.744Z,19.47
2019-05-25T20:41:18.312Z,10.37
2019-05-25T20:46:20.793Z,10.67
2019-05-25T20:51:23.303Z,14.13
2019-05-25T20:56:25.775Z,12.43
2019-05-25T21:01:28.173Z,11.20
2019-05-25T21:06:30.603Z,9.50
2019-05-25T21:11:33.184Z,10.63
2019-05-25T21:16:35.815Z,8.93
2019-05-25T21:21:38.218Z,12.80
2019-05-25T21:26:41.487Z,11.83
2019-05-25T21:31:43.968Z,11.13
2019-05-25T21:36:46.372Z,9.30
2019-05-25T21:41:49.063Z,11.17
2019-05-25T21:46:51.493Z,9.93
2019-05-25T21:51:53.902Z,11.37
2019-05-25T21:56:58.025Z,14.47
2019-05-25T22:02:00.519Z,10.13
2019-05-25T22:07:02.978Z,11.20
2019-05-25T22:12:06.796Z,14.17
2019-05-25T22:17:09.287Z,10.73
2019-05-25T22:22:11.669Z,10.37
2019-05-25T22:27:14.044Z,11.47
2019-05-25T22:32:16.508Z,18.27
2019-05-25T22:37:18.907Z,23.70
2019-05-25T22:42:21.496Z,16.10
2019-05-25T22:47:24.593Z,13.60
2019-05-25T22:52:27.570Z,13.67
2019-05-25T22:57:30.000Z,11.73
2019-05-25T23:02:32.452Z,15.13
2019-05-25T23:07:34.863Z,12.20
2019-05-25T23:12:37.551Z,11.57
2019-05-25T23:17:40.053Z,10.50
2019-05-25T23:22:42.587Z,10.20
2019-05-25T23:27:45.043Z,9.33
2019-05-25T23:32:47.442Z,11.80
2019-05-25T23:37:49.823Z,12.87
2019-05-25T23:42:52.119Z,10.90
2019-05-25T23:47:54.571Z,10.70
2019-05-25T23:52:57.204Z,10.23
2019-05-25T23:57:59.724Z,8.83
